createdAt,value
2023-05-06T00:00:12.371Z,18.0054
2023-05-06T00:01:14.719Z,17.9896
2023-05-06T00:02:16.981Z,17.9988
2023-05-06T00:03:18.690Z,17.9801
2023-05-06T00:04:22.079Z,17.9523
2023-05-06T00:05:23.888Z,18.0088
2023-05-06T00:06:25.616Z,18.0177
2023-05-06T00:07:28.076Z,17.9590
2023-05-06T00:08:30.383Z,17.9389
2023-05-06T00:09:32.661Z,17.7335
2023-05-06T00:10:35.114Z,17.5794
2023-05-06T00:11:38.117Z,17.6443
2023-05-06T00:12:39.676Z,17.8926
2023-05-06T00:13:42.013Z,18.0237
2023-05-06T00:14:44.959Z,18.0498
2023-05-06T00:15:46.657Z,18.1603
2023-05-06T00:16:49.066Z,17.9676
2023-05-06T00:17:51.760Z,17.8646
2023-05-06T00:18:54.090Z,17.9621
2023-05-06T00:19:56.025Z,17.8526
2023-05-06T00:20:58.359Z,17.7793
2023-05-06T00:22:00.692Z,17.7711
2023-05-06T00:23:03.025Z,17.6261
2023-05-06T00:24:05.464Z,17.7386
2023-05-06T00:25:08.134Z,17.8707
2023-05-06T00:26:10.190Z,17.7573
2023-05-06T00:27:12.499Z,17.7075
2023-05-06T00:28:14.812Z,17.8782
2023-05-06T00:29:17.793Z,17.9992
2023-05-06T00:30:21.511Z,18.0682
2023-05-06T00:31:22.351Z,18.0733
2023-05-06T00:32:24.348Z,18.0658
2023-05-06T00:33:26.421Z,18.0431
2023-05-06T00:34:28.979Z,18.0406
2023-05-06T00:35:31.161Z,18.0333
2023-05-06T00:36:33.764Z,17.9801
2023-05-06T00:37:35.791Z,17.9213
2023-05-06T00:38:39.850Z,17.8571
2023-05-06T00:39:41.872Z,17.8210
2023-05-06T00:40:42.894Z,17.8156
2023-05-06T00:41:45.140Z,17.7865
2023-05-06T00:42:47.457Z,17.7498
2023-05-06T00:43:49.813Z,17.7210
2023-05-06T00:44:52.168Z,17.6314
2023-05-06T00:45:54.557Z,17.5905
2023-05-06T00:46:56.783Z,17.6170
2023-05-06T00:47:59.238Z,17.5862
2023-05-06T00:49:01.515Z,17.4919
2023-05-06T00:50:03.817Z,17.5301
2023-05-06T00:51:06.154Z,17.6063
2023-05-06T00:52:08.485Z,17.6115
2023-05-06T00:53:10.821Z,17.6078
2023-05-06T00:54:13.164Z,17.6304
2023-05-06T00:55:15.565Z,17.5961
2023-05-06T00:56:20.017Z,17.5774
2023-05-06T00:57:20.168Z,17.5457
2023-05-06T00:58:22.510Z,17.5146
2023-05-06T00:59:24.879Z,17.4841
2023-05-06T01:00:27.195Z,17.5152
2023-05-06T01:01:29.582Z,17.5468
2023-05-06T01:02:43.282Z,17.6392
2023-05-06T01:03:34.292Z,17.6442
2023-05-06T01:04:36.559Z,17.6496
2023-05-06T01:05:38.866Z,17.5205
2023-05-06T01:06:41.195Z,17.5913
2023-05-06T01:07:43.542Z,17.6865
2023-05-06T01:08:45.885Z,17.6959
2023-05-06T01:09:48.289Z,17.6065
2023-05-06T01:10:50.713Z,17.6230
2023-05-06T01:11:52.975Z,17.4363
2023-05-06T01:12:55.376Z,17.5400
2023-05-06T01:13:57.657Z,17.6496
2023-05-06T01:15:00.033Z,17.6764
2023-05-06T01:16:02.336Z,17.6671
2023-05-06T01:17:04.705Z,17.6973
2023-05-06T01:18:07.051Z,17.7132
2023-05-06T01:19:09.376Z,17.7233
2023-05-06T01:20:11.738Z,17.7166
2023-05-06T01:21:14.014Z,17.7360
2023-05-06T01:22:16.358Z,17.7970
2023-05-06T01:23:18.713Z,17.8117
2023-05-06T01:24:21.054Z,17.7789
2023-05-06T01:25:23.391Z,17.7818
2023-05-06T01:26:25.808Z,17.8002
2023-05-06T01:27:28.145Z,17.7449
2023-05-06T01:28:30.428Z,17.7608
2023-05-06T01:29:32.832Z,17.7448
2023-05-06T01:30:35.105Z,17.7756
2023-05-06T01:31:37.509Z,17.8304
2023-05-06T01:32:39.783Z,17.8679
2023-05-06T01:33:42.114Z,17.8430
2023-05-06T01:34:44.593Z,17.7692
2023-05-06T01:35:46.837Z,17.7854
2023-05-06T01:36:49.147Z,17.8032
2023-05-06T01:37:51.552Z,17.8382
2023-05-06T01:38:53.784Z,17.8635
2023-05-06T01:39:56.144Z,17.8547
2023-05-06T01:40:58.488Z,17.8510
2023-05-06T01:42:00.824Z,17.7943
2023-05-06T01:43:03.181Z,17.4724
2023-05-06T01:44:05.453Z,17.5827
2023-05-06T01:45:08.170Z,17.6055
2023-05-06T01:46:10.357Z,17.4861
2023-05-06T01:47:12.649Z,17.6392
2023-05-06T01:48:14.852Z,17.7978
2023-05-06T01:49:17.199Z,17.8335
2023-05-06T01:50:19.476Z,17.8791
2023-05-06T01:51:21.896Z,17.9134
2023-05-06T01:52:24.183Z,17.9293
2023-05-06T01:53:26.527Z,17.8167
2023-05-06T01:54:28.870Z,17.7006
2023-05-06T01:55:31.198Z,17.6854
2023-05-06T01:56:33.555Z,17.7302
2023-05-06T01:57:35.937Z,17.7670
2023-05-06T01:58:38.209Z,17.8165
2023-05-06T01:59:40.555Z,17.8458
2023-05-06T02:00:42.891Z,17.8641
2023-05-06T02:01:45.283Z,17.7931
2023-05-06T02:02:47.716Z,17.7672
2023-05-06T02:03:50.064Z,17.7702
2023-05-06T02:04:52.232Z,17.7580
2023-05-06T02:05:54.564Z,17.6528
2023-05-06T02:06:56.918Z,17.7206
2023-05-06T02:07:59.209Z,17.7937
2023-05-06T02:09:01.573Z,17.8005
2023-05-06T02:10:03.919Z,17.8167
2023-05-06T02:11:06.253Z,17.8072
2023-05-06T02:12:08.647Z,17.6702
2023-05-06T02:13:11.054Z,17.7171
2023-05-06T02:14:13.257Z,17.7402
2023-05-06T02:15:15.709Z,17.7631
2023-05-06T02:16:17.979Z,17.8410
2023-05-06T02:17:20.369Z,17.8600
2023-05-06T02:18:22.745Z,17.8259
2023-05-06T02:19:24.959Z,17.7297
2023-05-06T02:20:27.342Z,17.7242
2023-05-06T02:21:29.802Z,17.8270
2023-05-06T02:22:31.991Z,17.8753
2023-05-06T02:23:34.318Z,17.8177
2023-05-06T02:24:36.904Z,17.8487
2023-05-06T02:25:39.133Z,17.9285
2023-05-06T02:26:41.462Z,17.9224
2023-05-06T02:27:43.743Z,17.9169
2023-05-06T02:28:46.102Z,17.9681
2023-05-06T02:29:48.348Z,17.8766
2023-05-06T02:30:50.692Z,17.9227
2023-05-06T02:31:53.171Z,17.9950
2023-05-06T02:32:55.422Z,18.0210
2023-05-06T02:33:57.809Z,18.0117
2023-05-06T02:35:00.065Z,17.9778
2023-05-06T02:36:02.809Z,17.9114
2023-05-06T02:37:04.707Z,17.8455
2023-05-06T02:38:07.082Z,17.9705
2023-05-06T02:39:09.572Z,18.0619
2023-05-06T02:40:11.843Z,17.9972
2023-05-06T02:41:14.097Z,17.9596
2023-05-06T02:42:16.614Z,18.0419
2023-05-06T02:43:19.217Z,18.0702
2023-05-06T02:44:21.176Z,17.8116
2023-05-06T02:45:23.465Z,17.8290
2023-05-06T02:46:25.799Z,18.0566
2023-05-06T02:47:28.179Z,18.1174
2023-05-06T02:48:30.491Z,18.1194
2023-05-06T02:49:32.855Z,18.1116
2023-05-06T02:50:35.162Z,18.1451
2023-05-06T02:51:37.496Z,18.1116
2023-05-06T02:52:39.841Z,17.9646
2023-05-06T02:53:42.178Z,17.7836
2023-05-06T02:54:44.530Z,17.7651
2023-05-06T02:55:47.008Z,17.9740
2023-05-06T02:56:49.210Z,18.0769
2023-05-06T02:57:51.552Z,17.9562
2023-05-06T02:58:53.919Z,18.1357
2023-05-06T02:59:56.316Z,18.2521
2023-05-06T03:00:58.592Z,18.1895
2023-05-06T03:02:00.917Z,18.1503
2023-05-06T03:03:03.267Z,17.8938
2023-05-06T03:04:05.632Z,17.7532
2023-05-06T03:05:08.163Z,17.7405
2023-05-06T03:06:10.283Z,17.7271
2023-05-06T03:07:12.614Z,17.5464
2023-05-06T03:08:14.959Z,17.7103
2023-05-06T03:09:17.319Z,17.8622
2023-05-06T03:10:19.644Z,17.9038
2023-05-06T03:11:21.986Z,17.8645
2023-05-06T03:12:24.321Z,17.8385
2023-05-06T03:13:26.657Z,17.9494
2023-05-06T03:14:29.007Z,17.8974
2023-05-06T03:15:31.417Z,17.7405
2023-05-06T03:16:33.678Z,17.7752
2023-05-06T03:17:36.145Z,17.8222
2023-05-06T03:18:38.379Z,17.8098
2023-05-06T03:19:40.724Z,17.8091
2023-05-06T03:20:43.055Z,17.8709
2023-05-06T03:21:45.452Z,17.6238
2023-05-06T03:22:47.727Z,17.6910
2023-05-06T03:23:50.090Z,17.8900
2023-05-06T03:24:52.435Z,17.8719
2023-05-06T03:25:54.749Z,17.9003
2023-05-06T03:26:57.070Z,17.6072
2023-05-06T03:27:59.422Z,17.5854
2023-05-06T03:29:01.783Z,17.6581
2023-05-06T03:30:04.138Z,17.6552
2023-05-06T03:31:06.745Z,17.6815
2023-05-06T03:32:08.809Z,17.8196
2023-05-06T03:33:11.126Z,17.7744
2023-05-06T03:34:13.491Z,17.8438
2023-05-06T03:35:15.860Z,17.9241
2023-05-06T03:36:18.172Z,18.0045
2023-05-06T03:37:20.519Z,17.9395
2023-05-06T03:38:22.842Z,17.8563
2023-05-06T03:39:25.188Z,17.9056
2023-05-06T03:40:27.573Z,17.9434
2023-05-06T03:41:29.891Z,17.7177
2023-05-06T03:42:32.232Z,17.6583
2023-05-06T03:43:34.552Z,17.7620
2023-05-06T03:44:36.892Z,17.7844
2023-05-06T03:45:39.201Z,17.6361
2023-05-06T03:46:41.953Z,17.2783
2023-05-06T03:47:43.932Z,17.4534
2023-05-06T03:48:46.242Z,17.5942
2023-05-06T03:49:48.613Z,17.6881
2023-05-06T03:50:50.959Z,17.7731
2023-05-06T03:51:53.279Z,17.8935
2023-05-06T03:52:55.619Z,17.9804
2023-05-06T03:53:57.957Z,17.9235
2023-05-06T03:55:00.304Z,17.6220
2023-05-06T03:56:02.656Z,17.8009
2023-05-06T03:57:04.979Z,17.8921
2023-05-06T03:58:07.315Z,17.8134
2023-05-06T03:59:09.655Z,17.7175
2023-05-06T04:00:11.970Z,17.8945
2023-05-06T04:01:14.337Z,17.9894
2023-05-06T04:02:16.853Z,18.0328
2023-05-06T04:03:19.089Z,18.0146
2023-05-06T04:04:21.374Z,17.9948
2023-05-06T04:05:23.720Z,18.0638
2023-05-06T04:06:26.058Z,18.0679
2023-05-06T04:07:28.392Z,18.0145
2023-05-06T04:08:30.745Z,17.8739
2023-05-06T04:09:33.088Z,17.9087
2023-05-06T04:10:35.420Z,17.8569
2023-05-06T04:11:37.759Z,17.8582
2023-05-06T04:12:40.106Z,17.9810
2023-05-06T04:13:42.460Z,17.9500
2023-05-06T04:14:45.225Z,17.9629
2023-05-06T04:15:47.824Z,17.9594
2023-05-06T04:16:49.472Z,17.9756
2023-05-06T04:17:52.062Z,17.9159
2023-05-06T04:18:54.162Z,17.8621
2023-05-06T04:19:56.469Z,17.9278
2023-05-06T04:20:58.964Z,17.9224
2023-05-06T04:22:01.508Z,17.9937
2023-05-06T04:23:03.524Z,18.0867
2023-05-06T04:24:06.393Z,18.1040
2023-05-06T04:25:08.401Z,18.0909
2023-05-06T04:26:10.966Z,18.1083
2023-05-06T04:27:13.970Z,18.0551
2023-05-06T04:28:15.654Z,18.0319
2023-05-06T04:29:17.626Z,18.0119
2023-05-06T04:30:19.922Z,18.0410
2023-05-06T04:31:22.272Z,17.9691
2023-05-06T04:32:24.609Z,17.9502
2023-05-06T04:33:26.959Z,17.8488
2023-05-06T04:34:29.301Z,17.8144
2023-05-06T04:35:31.633Z,17.7748
2023-05-06T04:36:33.992Z,17.7582
2023-05-06T04:37:36.513Z,17.6930
2023-05-06T04:38:38.667Z,17.7883
2023-05-06T04:39:41.010Z,17.9045
2023-05-06T04:40:43.480Z,17.8982
2023-05-06T04:41:45.656Z,17.4934
2023-05-06T04:42:48.006Z,17.5665
2023-05-06T04:43:50.306Z,17.7879
2023-05-06T04:44:52.695Z,17.5950
2023-05-06T04:45:55.050Z,17.3200
2023-05-06T04:46:57.383Z,17.2471
2023-05-06T04:47:59.732Z,17.4702
2023-05-06T04:49:02.122Z,17.7737
2023-05-06T04:50:04.422Z,17.9001
2023-05-06T04:51:06.718Z,17.9313
2023-05-06T04:52:09.066Z,17.9728
2023-05-06T04:53:11.400Z,17.9826
2023-05-06T04:54:13.761Z,17.9978
2023-05-06T04:55:16.122Z,18.0519
2023-05-06T04:56:18.434Z,18.0969
2023-05-06T04:57:20.774Z,18.1182
2023-05-06T04:58:23.120Z,18.0971
2023-05-06T04:59:25.482Z,18.0527
2023-05-06T05:00:27.820Z,18.0172
2023-05-06T05:01:30.206Z,18.0498
2023-05-06T05:02:32.573Z,18.0063
2023-05-06T05:03:34.920Z,17.9202
2023-05-06T05:04:37.171Z,17.8535
2023-05-06T05:05:39.530Z,17.8370
2023-05-06T05:06:41.864Z,17.8980
2023-05-06T05:07:44.193Z,17.9570
2023-05-06T05:08:46.551Z,17.9865
2023-05-06T05:09:48.885Z,17.9093
2023-05-06T05:10:51.245Z,17.8758
2023-05-06T05:11:53.568Z,17.8828
2023-05-06T05:12:55.952Z,17.8627
2023-05-06T05:13:59.579Z,17.8471
2023-05-06T05:15:00.717Z,17.8047
2023-05-06T05:16:03.044Z,17.7832
2023-05-06T05:17:05.418Z,17.7600
2023-05-06T05:18:07.820Z,17.7066
2023-05-06T05:19:10.060Z,17.5359
2023-05-06T05:20:12.411Z,17.4956
2023-05-06T05:21:14.760Z,17.6150
2023-05-06T05:22:17.088Z,17.7027
2023-05-06T05:23:19.426Z,17.6883
2023-05-06T05:24:21.765Z,17.5782
2023-05-06T05:25:24.104Z,17.7707
2023-05-06T05:26:26.450Z,17.7524
2023-05-06T05:27:28.801Z,17.6430
2023-05-06T05:28:31.139Z,17.6222
2023-05-06T05:29:33.482Z,17.5955
2023-05-06T05:30:35.819Z,17.6573
2023-05-06T05:31:38.190Z,17.6848
2023-05-06T05:32:40.507Z,17.6988
2023-05-06T05:33:42.889Z,17.8019
2023-05-06T05:34:45.203Z,17.7316
2023-05-06T05:35:47.609Z,17.6151
2023-05-06T05:36:49.873Z,17.6723
2023-05-06T05:37:52.213Z,17.7394
2023-05-06T05:38:54.569Z,17.7166
2023-05-06T05:39:56.899Z,17.8407
2023-05-06T05:40:59.234Z,17.9792
2023-05-06T05:42:01.587Z,17.8976
2023-05-06T05:43:03.916Z,17.9122
2023-05-06T05:44:06.259Z,17.9373
2023-05-06T05:45:08.706Z,17.8695
2023-05-06T05:46:10.951Z,17.6754
2023-05-06T05:47:13.272Z,17.7486
2023-05-06T05:48:15.616Z,17.4469
2023-05-06T05:49:17.967Z,17.5018
2023-05-06T05:50:20.296Z,17.7166
2023-05-06T05:51:22.820Z,17.8050
2023-05-06T05:52:24.978Z,17.8637
2023-05-06T05:53:27.317Z,17.4860
2023-05-06T05:54:29.698Z,17.6367
2023-05-06T05:55:31.995Z,17.9917
2023-05-06T05:56:34.338Z,17.8241
2023-05-06T05:57:37.504Z,17.8526
2023-05-06T05:58:39.062Z,18.0043
2023-05-06T05:59:41.414Z,17.8401
2023-05-06T06:00:44.040Z,17.7878
2023-05-06T06:01:46.465Z,17.8991
2023-05-06T06:02:48.426Z,17.9213
2023-05-06T06:03:50.948Z,17.5942
2023-05-06T06:04:53.249Z,17.4970
2023-05-06T06:05:55.596Z,17.6621
2023-05-06T06:06:57.917Z,17.7333
2023-05-06T06:08:02.210Z,17.6665
2023-05-06T06:09:02.400Z,17.9683
2023-05-06T06:10:04.787Z,18.0469
2023-05-06T06:11:07.168Z,17.8544
2023-05-06T06:12:09.424Z,17.5304
2023-05-06T06:13:11.877Z,17.6803
2023-05-06T06:14:14.171Z,17.7024
2023-05-06T06:15:16.459Z,17.9759
2023-05-06T06:16:18.855Z,17.9988
2023-05-06T06:17:21.677Z,17.7762
2023-05-06T06:18:23.467Z,17.7824
2023-05-06T06:19:25.823Z,17.8860
2023-05-06T06:20:28.154Z,17.9428
2023-05-06T06:21:30.635Z,17.8140
2023-05-06T06:22:32.991Z,18.0473
2023-05-06T06:23:35.241Z,17.8559
2023-05-06T06:24:37.539Z,17.8851
2023-05-06T06:25:39.996Z,17.9251
2023-05-06T06:26:42.277Z,17.9425
2023-05-06T06:27:44.605Z,17.9549
2023-05-06T06:28:47.030Z,18.1129
2023-05-06T06:29:49.205Z,18.2142
2023-05-06T06:30:52.605Z,18.0572
2023-05-06T06:31:54.862Z,18.0653
2023-05-06T06:32:56.483Z,17.8664
2023-05-06T06:33:58.907Z,18.0221
2023-05-06T06:35:00.890Z,18.0019
2023-05-06T06:36:03.232Z,17.9580
2023-05-06T06:37:07.806Z,17.8721
2023-05-06T06:38:12.313Z,17.7825
2023-05-06T06:39:10.239Z,17.9932
2023-05-06T06:40:14.890Z,17.8919
2023-05-06T06:41:15.096Z,17.9011
2023-05-06T06:42:17.789Z,17.8417
2023-05-06T06:43:19.593Z,17.8524
2023-05-06T06:44:22.857Z,17.6039
2023-05-06T06:45:24.811Z,17.6256
2023-05-06T06:46:26.627Z,17.5197
2023-05-06T06:47:29.055Z,17.5679
2023-05-06T06:48:31.366Z,17.9411
2023-05-06T06:49:33.728Z,17.8236
2023-05-06T06:50:35.975Z,17.6396
2023-05-06T06:51:38.310Z,17.8995
2023-05-06T06:52:40.720Z,17.8424
2023-05-06T06:53:43.120Z,17.7315
2023-05-06T06:54:45.334Z,17.4956
2023-05-06T06:55:47.770Z,17.6543
2023-05-06T06:56:50.007Z,17.7885
2023-05-06T06:57:52.345Z,17.7773
2023-05-06T06:58:54.665Z,17.8927
2023-05-06T06:59:57.136Z,17.6920
2023-05-06T07:00:59.406Z,17.4004
2023-05-06T07:02:01.671Z,17.7690
2023-05-06T07:03:04.139Z,17.8999
2023-05-06T07:04:07.227Z,17.8216
2023-05-06T07:05:08.992Z,17.8101
2023-05-06T07:06:11.009Z,17.4244
2023-05-06T07:07:13.511Z,17.5077
2023-05-06T07:08:16.059Z,17.6015
2023-05-06T07:09:18.100Z,17.8045
2023-05-06T07:10:20.730Z,17.9807
2023-05-06T07:11:22.802Z,18.0586
2023-05-06T07:12:25.234Z,17.9133
2023-05-06T07:13:27.438Z,18.1432
2023-05-06T07:14:29.736Z,18.1134
2023-05-06T07:15:32.200Z,17.8228
2023-05-06T07:16:34.409Z,17.7241
2023-05-06T07:17:36.919Z,17.9509
2023-05-06T07:18:39.814Z,18.2106
2023-05-06T07:19:41.422Z,18.3548
2023-05-06T07:20:43.798Z,18.4276
2023-05-06T07:21:46.120Z,18.4756
2023-05-06T07:22:48.471Z,18.4814
2023-05-06T07:23:50.816Z,18.3165
2023-05-06T07:24:53.287Z,18.2840
2023-05-06T07:25:55.539Z,17.9783
2023-05-06T07:26:58.055Z,18.2099
2023-05-06T07:28:00.139Z,18.3314
2023-05-06T07:29:11.842Z,18.0958
2023-05-06T07:30:04.888Z,17.8268
2023-05-06T07:31:07.356Z,18.0293
2023-05-06T07:32:09.589Z,18.3735
2023-05-06T07:33:11.970Z,18.2244
2023-05-06T07:34:14.566Z,18.3577
2023-05-06T07:35:16.536Z,18.3270
2023-05-06T07:36:18.853Z,18.3479
2023-05-06T07:37:21.229Z,18.5088
2023-05-06T07:38:23.558Z,18.4390
2023-05-06T07:39:25.958Z,18.3624
2023-05-06T07:40:28.294Z,18.3855
2023-05-06T07:41:30.551Z,18.5629
2023-05-06T07:42:32.935Z,18.3487
2023-05-06T07:43:35.327Z,18.5257
2023-05-06T07:44:37.588Z,18.4109
2023-05-06T07:45:40.022Z,18.3230
2023-05-06T07:46:42.440Z,18.6067
2023-05-06T07:47:44.687Z,18.8829
2023-05-06T07:48:46.986Z,18.8557
2023-05-06T07:49:49.316Z,18.7413
2023-05-06T07:50:51.965Z,18.8833
2023-05-06T07:51:54.032Z,18.8722
2023-05-06T07:52:56.597Z,19.0998
2023-05-06T07:53:58.762Z,19.0887
2023-05-06T07:55:01.008Z,18.9131
2023-05-06T07:56:03.425Z,18.8700
2023-05-06T07:57:06.159Z,19.2821
2023-05-06T07:58:08.012Z,19.3677
2023-05-06T07:59:10.477Z,19.3181
2023-05-06T08:00:12.878Z,19.3976
2023-05-06T08:01:15.041Z,19.7817
2023-05-06T08:02:17.591Z,19.9046
2023-05-06T08:03:20.219Z,19.9523
2023-05-06T08:04:22.754Z,19.8433
2023-05-06T08:05:25.467Z,19.9111
2023-05-06T08:06:27.395Z,19.8804
2023-05-06T08:07:29.279Z,19.9263
2023-05-06T08:08:31.541Z,19.9937
2023-05-06T08:09:34.030Z,20.1735
2023-05-06T08:10:36.250Z,20.3235
2023-05-06T08:11:39.137Z,20.5082
2023-05-06T08:12:40.879Z,20.6817
2023-05-06T08:13:43.262Z,20.6108
2023-05-06T08:14:47.174Z,20.4977
2023-05-06T08:15:47.961Z,20.3845
2023-05-06T08:16:50.415Z,20.3239
2023-05-06T08:17:52.965Z,20.1390
2023-05-06T08:18:55.454Z,20.4043
2023-05-06T08:19:57.288Z,20.7200
2023-05-06T08:20:59.623Z,20.5373
2023-05-06T08:22:02.285Z,20.4599
2023-05-06T08:23:04.713Z,20.7245
2023-05-06T08:24:06.781Z,20.7169
2023-05-06T08:25:11.006Z,21.1290
2023-05-06T08:26:11.330Z,21.3607
2023-05-06T08:27:15.013Z,21.2303
2023-05-06T08:28:15.958Z,21.2093
2023-05-06T08:29:18.405Z,21.2328
2023-05-06T08:30:20.674Z,21.1223
2023-05-06T08:31:23.028Z,21.4779
2023-05-06T08:32:25.530Z,21.5620
2023-05-06T08:33:27.694Z,21.4557
2023-05-06T08:34:30.024Z,21.3439
2023-05-06T08:35:32.419Z,21.7028
2023-05-06T08:36:34.672Z,21.7267
2023-05-06T08:37:37.167Z,21.6658
2023-05-06T08:38:39.390Z,21.7027
2023-05-06T08:39:41.741Z,21.9462
2023-05-06T08:40:44.054Z,22.2116
2023-05-06T08:41:46.425Z,22.2079
2023-05-06T08:42:48.764Z,21.9441
2023-05-06T08:43:51.073Z,21.9519
2023-05-06T08:44:53.466Z,22.1216
2023-05-06T08:45:55.861Z,22.0070
2023-05-06T08:46:58.142Z,21.8889
2023-05-06T08:48:00.519Z,22.3708
2023-05-06T08:49:02.824Z,22.6019
2023-05-06T08:50:05.170Z,22.3933
2023-05-06T08:51:07.540Z,22.5749
2023-05-06T08:52:09.862Z,22.6222
2023-05-06T08:53:12.259Z,22.8629
2023-05-06T08:54:14.534Z,22.8927
2023-05-06T08:55:17.579Z,22.9642
2023-05-06T08:56:19.253Z,22.3696
2023-05-06T08:57:21.568Z,22.5874
2023-05-06T08:58:23.986Z,22.7124
2023-05-06T08:59:26.328Z,22.8602
2023-05-06T09:00:28.695Z,22.7069
2023-05-06T09:01:31.071Z,22.7307
2023-05-06T09:02:33.424Z,22.8796
2023-05-06T09:03:35.691Z,22.9557
2023-05-06T09:04:38.042Z,23.0030
2023-05-06T09:05:40.368Z,22.9506
2023-05-06T09:06:42.738Z,23.1223
2023-05-06T09:07:45.199Z,23.5191
2023-05-06T09:08:47.401Z,23.5721
2023-05-06T09:09:49.803Z,23.7086
2023-05-06T09:10:52.147Z,23.4695
2023-05-06T09:11:54.468Z,23.4606
2023-05-06T09:12:56.957Z,23.6266
2023-05-06T09:13:59.275Z,23.3142
2023-05-06T09:15:01.547Z,23.6778
2023-05-06T09:16:03.887Z,23.7986
2023-05-06T09:17:06.273Z,23.7955
2023-05-06T09:18:08.689Z,24.1763
2023-05-06T09:19:10.938Z,24.0743
2023-05-06T09:20:13.342Z,23.7713
2023-05-06T09:21:15.658Z,23.8396
2023-05-06T09:22:18.028Z,23.8864
2023-05-06T09:23:20.376Z,24.0060
2023-05-06T09:24:22.787Z,24.0031
2023-05-06T09:25:25.118Z,23.4620
2023-05-06T09:26:27.450Z,23.6582
2023-05-06T09:27:29.762Z,24.0178
2023-05-06T09:28:32.139Z,24.4556
2023-05-06T09:29:34.504Z,24.5008
2023-05-06T09:30:36.829Z,24.7701
2023-05-06T09:31:39.215Z,24.7829
2023-05-06T09:32:41.568Z,24.9546
2023-05-06T09:33:43.858Z,25.0160
2023-05-06T09:34:47.622Z,24.7278
2023-05-06T09:35:48.628Z,24.6778
2023-05-06T09:36:51.140Z,24.7159
2023-05-06T09:38:12.447Z,25.0185
2023-05-06T09:39:03.249Z,24.8910
2023-05-06T09:39:57.955Z,24.8166
2023-05-06T09:41:01.903Z,25.3391
2023-05-06T09:42:02.737Z,25.6687
2023-05-06T09:43:05.076Z,25.6484
2023-05-06T09:44:07.405Z,25.5778
2023-05-06T09:45:10.023Z,25.5092
2023-05-06T09:46:12.077Z,25.4558
2023-05-06T09:47:14.445Z,25.4221
2023-05-06T09:48:18.947Z,25.7762
2023-05-06T09:49:20.777Z,25.7212
2023-05-06T09:50:21.738Z,25.3719
2023-05-06T09:51:23.847Z,25.6816
2023-05-06T09:52:26.194Z,25.5406
2023-05-06T09:53:28.544Z,25.4773
2023-05-06T09:54:30.912Z,25.2522
2023-05-06T09:55:33.258Z,25.0770
2023-05-06T09:56:35.637Z,25.0423
2023-05-06T09:57:37.932Z,25.3711
2023-05-06T09:58:40.628Z,25.1002
2023-05-06T09:59:42.666Z,24.8585
2023-05-06T10:00:45.068Z,24.7950
2023-05-06T10:01:47.416Z,24.5133
2023-05-06T10:02:50.007Z,24.2375
2023-05-06T10:03:52.218Z,24.8474
2023-05-06T10:04:54.698Z,25.2041
2023-05-06T10:05:56.779Z,25.3167
2023-05-06T10:06:59.102Z,25.1774
2023-05-06T10:08:01.433Z,25.5124
2023-05-06T10:09:03.784Z,25.1012
2023-05-06T10:10:06.165Z,25.3151
2023-05-06T10:11:08.515Z,25.0813
2023-05-06T10:12:10.887Z,25.0326
2023-05-06T10:13:13.236Z,24.6421
2023-05-06T10:14:15.569Z,24.7794
2023-05-06T10:15:17.909Z,24.9001
2023-05-06T10:16:20.341Z,24.8888
2023-05-06T10:17:22.638Z,24.3254
2023-05-06T10:18:24.947Z,24.6764
2023-05-06T10:19:27.304Z,24.7038
2023-05-06T10:20:29.643Z,24.8726
2023-05-06T10:21:32.008Z,24.0990
2023-05-06T10:22:34.361Z,24.4817
2023-05-06T10:23:36.698Z,24.8777
2023-05-06T10:24:39.067Z,24.9422
2023-05-06T10:25:41.409Z,24.9862
2023-05-06T10:26:43.774Z,25.1012
2023-05-06T10:27:46.110Z,25.2218
2023-05-06T10:28:48.456Z,25.0374
2023-05-06T10:29:50.797Z,24.6230
2023-05-06T10:30:53.142Z,24.6898
2023-05-06T10:31:55.820Z,24.4951
2023-05-06T10:32:57.918Z,24.5214
2023-05-06T10:34:00.241Z,24.0481
2023-05-06T10:35:02.587Z,23.6689
2023-05-06T10:36:04.941Z,24.2034
2023-05-06T10:37:07.287Z,24.4550
2023-05-06T10:38:09.630Z,24.7210
2023-05-06T10:39:11.980Z,24.3679
2023-05-06T10:40:14.336Z,24.2243
2023-05-06T10:41:16.690Z,23.7716
2023-05-06T10:42:19.050Z,23.9265
2023-05-06T10:43:21.400Z,24.4053
2023-05-06T10:44:23.719Z,24.0002
2023-05-06T10:45:26.105Z,23.9152
2023-05-06T10:46:28.455Z,23.8392
2023-05-06T10:47:30.919Z,23.8507
2023-05-06T10:48:33.131Z,24.1048
2023-05-06T10:49:35.504Z,24.1724
2023-05-06T10:50:37.842Z,24.1247
2023-05-06T10:51:40.206Z,23.9220
2023-05-06T10:52:42.551Z,23.7207
2023-05-06T10:53:44.889Z,23.9596
2023-05-06T10:54:47.266Z,23.9487
2023-05-06T10:55:49.601Z,23.5531
2023-05-06T10:56:51.955Z,23.5371
2023-05-06T10:57:54.288Z,23.5940
2023-05-06T10:58:56.617Z,23.5403
2023-05-06T10:59:58.986Z,23.6778
2023-05-06T11:01:01.381Z,23.7790
2023-05-06T11:02:03.699Z,23.6114
2023-05-06T11:03:06.199Z,23.4380
2023-05-06T11:04:08.395Z,23.7730
2023-05-06T11:05:10.992Z,23.9900
2023-05-06T11:06:13.076Z,24.1407
2023-05-06T11:07:15.416Z,23.8663
2023-05-06T11:08:17.760Z,23.3208
2023-05-06T11:09:20.128Z,23.4730
2023-05-06T11:10:22.471Z,23.6441
2023-05-06T11:11:24.862Z,23.8688
2023-05-06T11:12:27.177Z,23.9006
2023-05-06T11:13:29.655Z,23.7445
2023-05-06T11:14:32.377Z,23.9793
2023-05-06T11:15:34.220Z,23.8291
2023-05-06T11:16:38.684Z,23.6550
2023-05-06T11:17:38.941Z,23.4201
2023-05-06T11:18:41.349Z,23.6884
2023-05-06T11:19:43.640Z,23.5391
2023-05-06T11:20:45.980Z,23.0517
2023-05-06T11:21:50.060Z,23.1262
2023-05-06T11:22:50.684Z,23.5158
2023-05-06T11:23:52.991Z,23.6451
2023-05-06T11:24:55.374Z,23.8002
2023-05-06T11:25:57.722Z,23.8811
2023-05-06T11:27:00.054Z,23.9649
2023-05-06T11:28:02.427Z,23.8437
2023-05-06T11:29:04.743Z,24.0799
2023-05-06T11:30:07.140Z,24.1927
2023-05-06T11:31:09.558Z,24.1124
2023-05-06T11:32:11.801Z,24.1171
2023-05-06T11:33:14.305Z,24.1603
2023-05-06T11:34:16.649Z,23.9651
2023-05-06T11:35:18.865Z,23.6193
2023-05-06T11:36:21.212Z,23.8361
2023-05-06T11:37:23.569Z,24.0654
2023-05-06T11:38:25.876Z,24.2428
2023-05-06T11:39:28.226Z,24.2274
2023-05-06T11:40:30.569Z,24.1266
2023-05-06T11:41:32.940Z,24.1448
2023-05-06T11:42:35.284Z,24.1504
2023-05-06T11:43:37.633Z,24.0522
2023-05-06T11:44:39.970Z,23.7347
2023-05-06T11:45:42.331Z,23.9629
2023-05-06T11:46:44.701Z,24.4143
2023-05-06T11:47:47.152Z,24.2352
2023-05-06T11:48:49.333Z,23.7061
2023-05-06T11:49:51.780Z,23.6539
2023-05-06T11:50:54.063Z,23.7478
2023-05-06T11:51:56.398Z,24.0812
2023-05-06T11:52:58.721Z,24.3075
2023-05-06T11:54:01.107Z,23.9606
2023-05-06T11:55:03.443Z,23.5970
2023-05-06T11:56:05.975Z,23.4773
2023-05-06T11:57:08.160Z,23.8140
2023-05-06T11:58:10.500Z,23.7717
2023-05-06T11:59:12.882Z,24.0867
2023-05-06T12:00:15.775Z,24.2626
2023-05-06T12:01:46.341Z,23.8080
2023-05-06T12:02:48.794Z,23.8608
2023-05-06T12:03:51.218Z,23.8759
2023-05-06T12:04:53.592Z,24.0748
2023-05-06T12:05:56.054Z,24.1952
2023-05-06T12:06:58.388Z,24.4515
2023-05-06T12:08:00.442Z,24.3705
2023-05-06T12:09:02.835Z,23.8725
2023-05-06T12:10:05.184Z,23.8856
2023-05-06T12:11:07.666Z,24.1490
2023-05-06T12:12:09.868Z,24.3476
2023-05-06T12:13:12.274Z,24.0251
2023-05-06T12:14:14.522Z,24.1315
2023-05-06T12:15:16.881Z,24.1457
2023-05-06T12:16:19.321Z,24.2921
2023-05-06T12:17:21.595Z,24.2853
2023-05-06T12:18:23.905Z,24.5283
2023-05-06T12:19:26.294Z,23.8910
2023-05-06T12:20:28.621Z,23.5490
2023-05-06T12:21:31.045Z,23.7558
2023-05-06T12:22:33.314Z,23.6632
2023-05-06T12:23:35.706Z,23.8374
2023-05-06T12:24:38.015Z,24.1138
2023-05-06T12:25:40.345Z,23.8712
2023-05-06T12:26:42.734Z,24.0697
2023-05-06T12:27:45.065Z,24.0799
2023-05-06T12:28:47.388Z,24.3194
2023-05-06T12:29:49.749Z,24.3733
2023-05-06T12:30:52.098Z,24.3620
2023-05-06T12:31:54.494Z,24.7266
2023-05-06T12:32:56.901Z,24.6321
2023-05-06T12:34:01.088Z,24.2873